Arcadia, Oklahoma
Current Conditions -  °F | °C
As of 8:53 AM on Thursday 30 Oct 2014 (Local Time) from KGOK Reporting Station
Clear Clear  
Wind Chill: 57°   Ceiling: Unl
Heat Index: 57°   Visibility: 10mi
Dew Point: 44°   Wind: 6mph
Humidity: 62%   Direction: 230°SW
Pressure: 30.12"   Gusts: NA
Location:  35.67°N, 97.33°W
Report Text: KGOK 301353Z AUTO 23005KT 10SM CLR 14/07 A3012 RMK AO2 SLP199 T01390067
Loading
Personal Weather Stations






























Interactive Weather Map
Tropical Storm Tracking
New forecast layout! Learn more

10-Day Weather Forecast

Advertisements
Track Severe Weather on mobile